createdAt,value
2017-11-15T13:19:57.227Z,1010.72
2017-11-15T13:20:57.213Z,1010.7
2017-11-15T13:21:57.247Z,1010.7
2017-11-15T13:22:57.282Z,1010.71
2017-11-15T13:23:57.317Z,1010.72
2017-11-15T13:24:57.351Z,1010.71
2017-11-15T13:25:57.385Z,1010.67
2017-11-15T13:26:57.419Z,1010.7
2017-11-15T13:27:57.452Z,1010.72
2017-11-15T13:28:57.487Z,1010.71
2017-11-15T13:29:57.519Z,1010.72
2017-11-15T13:30:57.559Z,1010.68
2017-11-15T13:31:57.590Z,1010.71
2017-11-15T13:32:57.623Z,1010.66
2017-11-15T13:33:57.659Z,1010.73
2017-11-15T13:34:57.698Z,1010.67
2017-11-15T13:35:57.726Z,1010.69
2017-11-15T13:36:57.769Z,1010.7
2017-11-15T13:37:57.798Z,1010.72
2017-11-15T13:38:57.830Z,1010.67
2017-11-15T13:39:57.865Z,1010.68
2017-11-15T13:40:57.903Z,1010.71
2017-11-15T13:41:57.935Z,1010.68
2017-11-15T13:42:57.977Z,1010.68
2017-11-15T13:43:58.002Z,1010.71
2017-11-15T13:44:58.037Z,1010.68
2017-11-15T13:45:58.070Z,1010.69
2017-11-15T13:46:58.102Z,1010.69
2017-11-15T13:47:58.160Z,1010.72
2017-11-15T13:48:58.172Z,1010.74
2017-11-15T13:49:58.208Z,1010.71
2017-11-15T13:50:58.248Z,1010.68
2017-11-15T13:51:58.281Z,1010.71
2017-11-15T13:52:58.308Z,1010.7
2017-11-15T13:53:58.344Z,1010.72
2017-11-15T13:54:58.378Z,1010.73
2017-11-15T13:55:58.412Z,1010.71
2017-11-15T13:56:58.457Z,1010.75
2017-11-15T13:57:58.480Z,1010.72
2017-11-15T13:58:58.513Z,1010.7
2017-11-15T13:59:58.549Z,1010.73
2017-11-15T14:00:58.588Z,1010.7
2017-11-15T14:01:58.618Z,1010.66
2017-11-15T14:02:58.653Z,1010.74
2017-11-15T14:03:58.687Z,1010.73
2017-11-15T14:04:58.720Z,1010.75
2017-11-15T14:05:58.755Z,1010.74
2017-11-15T14:06:58.789Z,1010.72
2017-11-15T14:07:58.826Z,1010.72
2017-11-15T14:08:58.859Z,1010.74
2017-11-15T14:09:58.892Z,1010.76
2017-11-15T14:10:58.928Z,1010.8
2017-11-15T14:11:58.958Z,1010.8
2017-11-15T14:12:58.992Z,1010.84
2017-11-15T14:13:59.028Z,1010.85
2017-11-15T14:14:59.061Z,1010.89
2017-11-15T14:15:59.095Z,1010.87
2017-11-15T14:16:59.131Z,1010.9
2017-11-15T14:17:59.171Z,1010.91
2017-11-15T14:18:59.199Z,1010.91
2017-11-15T14:19:59.270Z,1010.91
2017-11-15T14:20:59.268Z,1010.91
2017-11-15T14:21:59.302Z,1010.85
2017-11-15T14:22:59.339Z,1010.92
2017-11-15T14:23:59.368Z,1010.92
2017-11-15T14:24:59.403Z,1010.94
2017-11-15T14:25:59.437Z,1010.91
2017-11-15T14:26:59.469Z,1010.88
2017-11-15T14:27:59.506Z,1010.89
2017-11-15T14:28:59.545Z,1010.9
2017-11-15T14:29:59.574Z,1010.88
2017-11-15T14:30:59.664Z,1010.89
2017-11-15T14:31:59.641Z,1010.88
2017-11-15T14:32:59.676Z,1010.88
2017-11-15T14:33:59.709Z,1010.86
2017-11-15T14:34:59.742Z,1010.86
2017-11-15T14:35:59.777Z,1010.83
2017-11-15T14:36:59.817Z,1010.91
2017-11-15T14:37:59.844Z,1010.83
2017-11-15T14:38:59.882Z,1010.8
2017-11-15T14:39:59.912Z,1010.82
2017-11-15T14:40:59.947Z,1010.82
2017-11-15T14:41:59.980Z,1010.76
2017-11-15T14:43:00.017Z,1010.75
2017-11-15T14:44:00.047Z,1010.74
2017-11-15T14:45:00.080Z,1010.69
2017-11-15T14:46:00.113Z,1010.7
2017-11-15T14:47:00.150Z,1010.66
2017-11-15T14:48:00.185Z,1010.7
2017-11-15T14:49:00.217Z,1010.71
2017-11-15T14:50:00.254Z,1010.7
2017-11-15T14:51:00.286Z,1010.67
2017-11-15T14:52:00.319Z,1010.69
2017-11-15T14:53:00.355Z,1010.7
2017-11-15T14:54:00.385Z,1010.69
2017-11-15T14:55:00.418Z,1010.64
2017-11-15T14:56:00.456Z,1010.65
2017-11-15T14:57:00.486Z,1010.62
2017-11-15T14:58:00.521Z,1010.59
2017-11-15T14:59:00.555Z,1010.59
2017-11-15T15:00:00.589Z,1010.61
2017-11-15T15:01:00.633Z,1010.64
2017-11-15T15:02:00.658Z,1010.65
2017-11-15T15:03:00.690Z,1010.63
2017-11-15T15:04:00.782Z,1010.59
2017-11-15T15:05:00.757Z,1010.62
2017-11-15T15:06:00.789Z,1010.63
2017-11-15T15:07:00.827Z,1010.61
2017-11-15T15:08:00.856Z,1010.66
2017-11-15T15:09:00.893Z,1010.66
2017-11-15T15:10:00.924Z,1010.66
2017-11-15T15:11:00.959Z,1010.65
2017-11-15T15:12:00.991Z,1010.6
2017-11-15T15:13:01.026Z,1010.62
2017-11-15T15:14:01.060Z,1010.63
2017-11-15T15:15:01.093Z,1010.65
2017-11-15T15:16:01.127Z,1010.72
2017-11-15T15:17:01.159Z,1010.72
2017-11-15T15:18:01.192Z,1010.71
2017-11-15T15:19:01.225Z,1010.73
2017-11-15T15:20:01.260Z,1010.75
2017-11-15T15:21:01.295Z,1010.76
2017-11-15T15:22:01.328Z,1010.8
2017-11-15T15:23:01.361Z,1010.79
2017-11-15T15:24:01.403Z,1010.82
2017-11-15T15:25:01.428Z,1010.78
2017-11-15T15:26:01.459Z,1010.82
2017-11-15T15:27:01.495Z,1010.83
2017-11-15T15:28:01.528Z,1010.84
2017-11-15T15:29:01.562Z,1010.85
2017-11-15T15:30:01.594Z,1010.84
2017-11-15T15:31:01.629Z,1010.9
2017-11-15T15:32:01.660Z,1010.85
2017-11-15T15:33:01.694Z,1010.87
2017-11-15T15:34:01.734Z,1010.86
2017-11-15T15:35:01.761Z,1010.9
2017-11-15T15:36:01.795Z,1010.91
2017-11-15T15:37:01.835Z,1010.88
2017-11-15T15:38:01.862Z,1010.88
2017-11-15T15:39:01.897Z,1010.91
2017-11-15T15:40:01.930Z,1010.9
2017-11-15T15:41:01.963Z,1010.9
2017-11-15T15:42:02.018Z,1010.91
2017-11-15T15:43:02.031Z,1010.91
2017-11-15T15:44:02.064Z,1010.93
2017-11-15T15:45:02.096Z,1010.9
2017-11-15T15:46:02.130Z,1010.92
2017-11-15T15:47:02.163Z,1010.94
2017-11-15T15:48:02.199Z,1010.93
2017-11-15T15:49:02.230Z,1010.96
2017-11-15T15:50:02.266Z,1010.97
2017-11-15T15:51:02.297Z,1010.95
2017-11-15T15:52:02.331Z,1010.95
2017-11-15T15:53:02.461Z,1010.93
2017-11-15T15:54:02.400Z,1010.94
2017-11-15T15:55:02.431Z,1010.94
2017-11-15T15:56:02.465Z,1010.99
2017-11-15T15:57:02.500Z,1010.97
2017-11-15T15:58:02.530Z,1011.02
2017-11-15T15:59:02.566Z,1011.01
2017-11-15T16:00:02.610Z,1011.06
2017-11-15T16:01:02.633Z,1011.07
2017-11-15T16:02:02.664Z,1011.09
2017-11-15T16:03:02.699Z,1011.1
2017-11-15T16:04:02.733Z,1011.08
2017-11-15T16:05:02.772Z,1011.08
2017-11-15T16:06:02.800Z,1011.09
2017-11-15T16:07:02.858Z,1011.08
2017-11-15T16:08:02.874Z,1011.1
2017-11-15T16:09:02.902Z,1011.08
2017-11-15T16:10:02.935Z,1011.1
2017-11-15T16:11:02.969Z,1011.11
2017-11-15T16:12:03.001Z,1011.11
2017-11-15T16:13:03.042Z,1011.08
2017-11-15T16:14:03.072Z,1011.1
2017-11-15T16:15:03.105Z,1011.13
2017-11-15T16:16:03.135Z,1011.06
2017-11-15T16:17:03.168Z,1011.06
2017-11-15T16:18:03.200Z,1011.06
2017-11-15T16:19:03.234Z,1011.09
2017-11-15T16:20:03.267Z,1011.08
2017-11-15T16:21:03.301Z,1011.12
2017-11-15T16:22:03.339Z,1011.12
2017-11-15T16:23:03.377Z,1011.15
2017-11-15T16:24:03.402Z,1011.1
2017-11-15T16:25:03.436Z,1011.15
2017-11-15T16:26:03.474Z,1011.1
2017-11-15T16:27:03.522Z,1011.13
2017-11-15T16:28:03.536Z,1011.09
2017-11-15T16:29:03.570Z,1011.06
2017-11-15T16:30:03.602Z,1011.06
2017-11-15T16:31:03.639Z,1011.09
2017-11-15T16:32:03.669Z,1011.06
2017-11-15T16:33:03.703Z,1011.09
2017-11-15T16:34:03.736Z,1011.07
2017-11-15T16:35:03.772Z,1011.06
2017-11-15T16:36:03.804Z,1011.05
2017-11-15T16:37:03.836Z,1011.06
2017-11-15T16:38:03.871Z,1011.06
2017-11-15T16:39:03.902Z,1011.02
2017-11-15T16:40:03.938Z,1011.04
2017-11-15T16:41:03.972Z,1011.02
2017-11-15T16:42:04.004Z,1011.03
2017-11-15T16:43:04.038Z,1011
2017-11-15T16:44:04.071Z,1011.02
2017-11-15T16:45:04.107Z,1010.96
2017-11-15T16:46:04.138Z,1010.99
2017-11-15T16:47:04.171Z,1011.01
2017-11-15T16:48:04.204Z,1011
2017-11-15T16:49:04.239Z,1011.03
2017-11-15T16:50:04.272Z,1011.04
2017-11-15T16:51:04.305Z,1011.01
2017-11-15T16:52:04.338Z,1011.06
2017-11-15T16:53:04.373Z,1011.04
2017-11-15T16:54:04.405Z,1011.05
2017-11-15T16:55:04.440Z,1011.04
2017-11-15T16:56:04.475Z,1011.1
2017-11-15T16:57:04.505Z,1011.11
2017-11-15T16:58:04.542Z,1011.04
2017-11-15T16:59:04.581Z,1011.13
2017-11-15T17:00:04.609Z,1011.11
2017-11-15T17:01:04.661Z,1011.12
2017-11-15T17:02:04.674Z,1011.15
2017-11-15T17:03:04.708Z,1011.13
2017-11-15T17:04:04.740Z,1011.15
2017-11-15T17:05:04.780Z,1011.15
2017-11-15T17:06:04.805Z,1011.15
2017-11-15T17:07:04.840Z,1011.12
2017-11-15T17:08:04.874Z,1011.13
2017-11-15T17:09:04.906Z,1011.11
2017-11-15T17:10:04.941Z,1011.14
2017-11-15T17:11:04.975Z,1011.13
2017-11-15T17:12:05.008Z,1011.14
2017-11-15T17:13:05.041Z,1011.16
2017-11-15T17:14:05.083Z,1011.13
2017-11-15T17:15:05.108Z,1011.18
2017-11-15T17:16:05.142Z,1011.2
2017-11-15T17:17:05.176Z,1011.21
2017-11-15T17:18:05.240Z,1011.2
2017-11-15T17:19:05.240Z,1011.21
2017-11-15T17:20:05.276Z,1011.21
2017-11-15T17:21:05.321Z,1011.19
2017-11-15T17:22:05.341Z,1011.23
2017-11-15T17:23:05.377Z,1011.26
2017-11-15T17:24:05.416Z,1011.22
2017-11-15T17:25:05.443Z,1011.25
2017-11-15T17:26:05.479Z,1011.25
2017-11-15T17:27:05.508Z,1011.2
2017-11-15T17:28:05.543Z,1011.28
2017-11-15T17:29:05.577Z,1011.25
2017-11-15T17:30:05.609Z,1011.28
2017-11-15T17:31:05.645Z,1011.26
2017-11-15T17:32:05.678Z,1011.22
2017-11-15T17:33:05.714Z,1011.24
2017-11-15T17:34:05.743Z,1011.28
2017-11-15T17:35:05.778Z,1011.26
2017-11-15T17:36:05.924Z,1011.28
2017-11-15T17:37:05.844Z,1011.28
2017-11-15T17:38:05.878Z,1011.26
2017-11-15T17:39:05.912Z,1011.28
2017-11-15T17:40:05.944Z,1011.27
2017-11-15T17:41:05.978Z,1011.29
2017-11-15T17:42:06.012Z,1011.3
2017-11-15T17:43:06.048Z,1011.31
2017-11-15T17:44:06.077Z,1011.32
2017-11-15T17:45:06.112Z,1011.26
2017-11-15T17:46:06.145Z,1011.29
2017-11-15T17:47:06.176Z,1011.26
2017-11-15T17:48:06.212Z,1011.28
2017-11-15T17:49:06.246Z,1011.26
2017-11-15T17:50:06.276Z,1011.24
2017-11-15T17:51:06.312Z,1011.3
2017-11-15T17:52:06.343Z,1011.3
2017-11-15T17:53:06.378Z,1011.27
2017-11-15T17:54:06.413Z,1011.35
2017-11-15T17:55:06.446Z,1011.32
2017-11-15T17:56:06.477Z,1011.34
2017-11-15T17:57:06.510Z,1011.37
2017-11-15T17:58:06.545Z,1011.34
2017-11-15T17:59:06.576Z,1011.36
2017-11-15T18:00:06.611Z,1011.36
2017-11-15T18:01:06.643Z,1011.34
2017-11-15T18:02:06.680Z,1011.37
2017-11-15T18:03:06.709Z,1011.37
2017-11-15T18:04:06.743Z,1011.41
2017-11-15T18:05:06.777Z,1011.38
2017-11-15T18:06:06.813Z,1011.36
2017-11-15T18:07:06.843Z,1011.36
2017-11-15T18:08:06.877Z,1011.36
2017-11-15T18:09:06.924Z,1011.39
2017-11-15T18:10:06.941Z,1011.37
2017-11-15T18:11:07.014Z,1011.38
2017-11-15T18:12:07.009Z,1011.4
2017-11-15T18:13:07.046Z,1011.41
2017-11-15T18:14:07.076Z,1011.44
2017-11-15T18:15:07.114Z,1011.48
2017-11-15T18:16:07.143Z,1011.47
2017-11-15T18:17:07.176Z,1011.49
2017-11-15T18:18:07.208Z,1011.51
2017-11-15T18:19:07.450Z,1011.5
2017-11-15T18:20:07.275Z,1011.47
2017-11-15T18:21:07.312Z,1011.43
2017-11-15T18:22:07.342Z,1011.48
2017-11-15T18:23:07.378Z,1011.46
2017-11-15T18:24:07.409Z,1011.47
2017-11-15T18:25:07.441Z,1011.5
2017-11-15T18:26:07.473Z,1011.51
2017-11-15T18:27:07.508Z,1011.51
2017-11-15T18:28:07.542Z,1011.5
2017-11-15T18:29:07.573Z,1011.51
2017-11-15T18:30:07.608Z,1011.51
2017-11-15T18:31:07.641Z,1011.51
2017-11-15T18:32:07.673Z,1011.5
2017-11-15T18:33:07.707Z,1011.48
2017-11-15T18:34:07.747Z,1011.5
2017-11-15T18:35:07.773Z,1011.45
2017-11-15T18:36:07.807Z,1011.49
2017-11-15T18:37:07.846Z,1011.51
2017-11-15T18:38:07.876Z,1011.54
2017-11-15T18:39:07.906Z,1011.47
2017-11-15T18:40:07.941Z,1011.51
2017-11-15T18:41:07.974Z,1011.52
2017-11-15T18:42:08.007Z,1011.52
2017-11-15T18:43:08.041Z,1011.52
2017-11-15T18:44:08.073Z,1011.5
2017-11-15T18:45:08.110Z,1011.51
2017-11-15T18:46:08.142Z,1011.49
2017-11-15T18:47:08.180Z,1011.49
2017-11-15T18:48:08.208Z,1011.44
2017-11-15T18:49:08.241Z,1011.5
2017-11-15T18:50:08.287Z,1011.48
2017-11-15T18:51:08.308Z,1011.44
2017-11-15T18:52:08.341Z,1011.49
2017-11-15T18:53:08.375Z,1011.44
2017-11-15T18:54:08.407Z,1011.43
2017-11-15T18:55:08.440Z,1011.48
2017-11-15T18:56:08.475Z,1011.43
2017-11-15T18:57:08.506Z,1011.43
2017-11-15T18:58:08.541Z,1011.45
2017-11-15T18:59:08.573Z,1011.42
2017-11-15T19:00:08.606Z,1011.41
2017-11-15T19:01:08.652Z,1011.39
2017-11-15T19:02:08.673Z,1011.44
2017-11-15T19:03:08.705Z,1011.4
2017-11-15T19:04:08.739Z,1011.39
2017-11-15T19:05:08.777Z,1011.43
2017-11-15T19:06:08.803Z,1011.4
2017-11-15T19:07:08.840Z,1011.41
2017-11-15T19:08:08.874Z,1011.4
2017-11-15T19:09:08.912Z,1011.38
2017-11-15T19:10:08.939Z,1011.38
2017-11-15T19:11:08.972Z,1011.36
2017-11-15T19:12:09.006Z,1011.38
2017-11-15T19:13:09.037Z,1011.38
2017-11-15T19:14:09.071Z,1011.37
2017-11-15T19:15:09.109Z,1011.38
2017-11-15T19:16:09.138Z,1011.4
2017-11-15T19:17:09.172Z,1011.4
2017-11-15T19:18:09.205Z,1011.42
2017-11-15T19:19:09.237Z,1011.42
2017-11-15T19:20:09.270Z,1011.39
2017-11-15T19:21:09.303Z,1011.38
2017-11-15T19:22:09.337Z,1011.33
2017-11-15T19:23:09.370Z,1011.34
2017-11-15T19:24:09.404Z,1011.33
2017-11-15T19:25:09.436Z,1011.33
2017-11-15T19:26:09.473Z,1011.37
2017-11-15T19:27:09.503Z,1011.37
2017-11-15T19:28:09.536Z,1011.35
2017-11-15T19:29:09.569Z,1011.37
2017-11-15T19:30:09.603Z,1011.35
2017-11-15T19:31:09.636Z,1011.39
2017-11-15T19:32:09.669Z,1011.39
2017-11-15T19:33:09.705Z,1011.41
2017-11-15T19:34:09.735Z,1011.39
2017-11-15T19:35:09.768Z,1011.41
2017-11-15T19:36:09.818Z,1011.39
2017-11-15T19:37:09.839Z,1011.41
2017-11-15T19:38:09.867Z,1011.4
2017-11-15T19:39:09.902Z,1011.42
2017-11-15T19:40:09.936Z,1011.45
2017-11-15T19:41:09.967Z,1011.45
2017-11-15T19:42:10.002Z,1011.5
2017-11-15T19:43:10.037Z,1011.51
2017-11-15T19:44:10.069Z,1011.5
2017-11-15T19:45:10.101Z,1011.55
2017-11-15T19:46:10.135Z,1011.53
2017-11-15T19:47:10.171Z,1011.53
2017-11-15T19:48:10.202Z,1011.54
2017-11-15T19:49:10.237Z,1011.52
2017-11-15T19:50:10.271Z,1011.5
2017-11-15T19:51:10.301Z,1011.54
2017-11-15T19:52:10.334Z,1011.52
2017-11-15T19:53:10.368Z,1011.48
2017-11-15T19:54:10.402Z,1011.49
2017-11-15T19:55:10.435Z,1011.49
2017-11-15T19:56:10.466Z,1011.47
2017-11-15T19:57:10.509Z,1011.46
2017-11-15T19:58:10.535Z,1011.52
2017-11-15T19:59:10.569Z,1011.52
2017-11-15T20:00:10.602Z,1011.54
2017-11-15T20:01:10.634Z,1011.49
2017-11-15T20:02:10.668Z,1011.52
2017-11-15T20:03:10.700Z,1011.52
2017-11-15T20:04:10.739Z,1011.52
2017-11-15T20:05:10.768Z,1011.55
2017-11-15T20:06:10.812Z,1011.53
2017-11-15T20:07:10.844Z,1011.5
2017-11-15T20:08:10.868Z,1011.55
2017-11-15T20:09:10.903Z,1011.55
2017-11-15T20:10:10.936Z,1011.55
2017-11-15T20:11:10.968Z,1011.57
2017-11-15T20:12:11.002Z,1011.58
2017-11-15T20:13:11.037Z,1011.57
2017-11-15T20:14:11.072Z,1011.6
2017-11-15T20:15:11.106Z,1011.55
2017-11-15T20:16:11.137Z,1011.58
2017-11-15T20:17:11.171Z,1011.59
2017-11-15T20:18:11.202Z,1011.6
2017-11-15T20:19:11.237Z,1011.58
2017-11-15T20:20:11.269Z,1011.59
2017-11-15T20:21:11.304Z,1011.58
2017-11-15T20:22:11.337Z,1011.58
2017-11-15T20:23:11.372Z,1011.59
2017-11-15T20:24:11.404Z,1011.58
2017-11-15T20:25:11.436Z,1011.56
2017-11-15T20:26:11.471Z,1011.54
2017-11-15T20:27:11.505Z,1011.56
2017-11-15T20:28:11.538Z,1011.54
2017-11-15T20:29:11.569Z,1011.57
2017-11-15T20:30:11.604Z,1011.57
2017-11-15T20:31:11.638Z,1011.55
2017-11-15T20:32:11.674Z,1011.52
2017-11-15T20:33:11.710Z,1011.53
2017-11-15T20:34:11.736Z,1011.55
2017-11-15T20:35:11.772Z,1011.52
2017-11-15T20:36:11.805Z,1011.55
2017-11-15T20:37:11.837Z,1011.53
2017-11-15T20:38:11.872Z,1011.57
2017-11-15T20:39:11.905Z,1011.58
2017-11-15T20:40:11.939Z,1011.57
2017-11-15T20:41:11.970Z,1011.59
2017-11-15T20:42:12.007Z,1011.56
2017-11-15T20:43:12.037Z,1011.58
2017-11-15T20:44:12.073Z,1011.56
2017-11-15T20:45:12.105Z,1011.59
2017-11-15T20:46:12.138Z,1011.56
2017-11-15T20:47:12.177Z,1011.62
2017-11-15T20:48:12.204Z,1011.58
2017-11-15T20:49:12.239Z,1011.59
2017-11-15T20:50:12.272Z,1011.54
2017-11-15T20:51:12.305Z,1011.58
2017-11-15T20:52:12.338Z,1011.54
2017-11-15T20:53:12.373Z,1011.55
2017-11-15T20:54:12.404Z,1011.53
2017-11-15T20:55:12.438Z,1011.58
2017-11-15T20:56:12.473Z,1011.57
2017-11-15T20:57:12.508Z,1011.59
2017-11-15T20:58:12.537Z,1011.61
2017-11-15T20:59:12.571Z,1011.61
2017-11-15T21:00:12.606Z,1011.57
2017-11-15T21:01:12.851Z,1011.59
2017-11-15T21:02:12.672Z,1011.59
2017-11-15T21:03:12.707Z,1011.61
2017-11-15T21:04:12.738Z,1011.58
2017-11-15T21:05:12.772Z,1011.6
2017-11-15T21:06:12.806Z,1011.61
2017-11-15T21:07:12.844Z,1011.61
2017-11-15T21:08:12.872Z,1011.62
2017-11-15T21:09:12.906Z,1011.63
2017-11-15T21:10:12.940Z,1011.62
2017-11-15T21:11:12.975Z,1011.61
2017-11-15T21:12:13.009Z,1011.59
2017-11-15T21:13:13.045Z,1011.62
2017-11-15T21:14:13.073Z,1011.62
2017-11-15T21:15:13.108Z,1011.65
2017-11-15T21:16:13.142Z,1011.66
2017-11-15T21:17:13.172Z,1011.65
2017-11-15T21:18:13.208Z,1011.64
2017-11-15T21:19:13.241Z,1011.65
2017-11-15T21:20:13.274Z,1011.61
2017-11-15T21:21:13.306Z,1011.61
2017-11-15T21:22:13.341Z,1011.64
2017-11-15T21:23:13.377Z,1011.6
2017-11-15T21:24:13.413Z,1011.58
2017-11-15T21:25:13.441Z,1011.61
2017-11-15T21:26:13.474Z,1011.55
2017-11-15T21:27:13.506Z,1011.57
2017-11-15T21:28:13.543Z,1011.62
2017-11-15T21:29:13.574Z,1011.58
2017-11-15T21:30:13.609Z,1011.57
2017-11-15T21:31:13.641Z,1011.54
2017-11-15T21:32:13.673Z,1011.55
2017-11-15T21:33:13.709Z,1011.53
2017-11-15T21:34:13.742Z,1011.54
2017-11-15T21:35:13.775Z,1011.57
2017-11-15T21:36:13.809Z,1011.55
2017-11-15T21:37:13.842Z,1011.54
2017-11-15T21:38:13.876Z,1011.56
2017-11-15T21:39:13.907Z,1011.55
2017-11-15T21:40:13.941Z,1011.55
2017-11-15T21:41:13.978Z,1011.51
2017-11-15T21:42:14.008Z,1011.54
2017-11-15T21:43:14.043Z,1011.52
2017-11-15T21:44:14.081Z,1011.5
2017-11-15T21:45:14.110Z,1011.53
2017-11-15T21:46:14.143Z,1011.5
2017-11-15T21:47:14.187Z,1011.52
2017-11-15T21:48:14.211Z,1011.51
2017-11-15T21:49:14.243Z,1011.52
2017-11-15T21:50:14.277Z,1011.58
2017-11-15T21:51:14.310Z,1011.55
2017-11-15T21:52:14.343Z,1011.52
2017-11-15T21:53:14.377Z,1011.55
2017-11-15T21:54:14.410Z,1011.54
2017-11-15T21:55:14.443Z,1011.51
2017-11-15T21:56:14.478Z,1011.48
2017-11-15T21:57:14.511Z,1011.49
2017-11-15T21:58:14.545Z,1011.44
2017-11-15T21:59:14.587Z,1011.47
2017-11-15T22:00:14.611Z,1011.45
2017-11-15T22:01:14.659Z,1011.45
2017-11-15T22:02:14.678Z,1011.45
2017-11-15T22:03:14.712Z,1011.44
2017-11-15T22:04:14.746Z,1011.43
2017-11-15T22:05:14.778Z,1011.44
2017-11-15T22:06:14.811Z,1011.46
2017-11-15T22:07:14.844Z,1011.45
2017-11-15T22:08:14.879Z,1011.46
2017-11-15T22:09:14.914Z,1011.51
2017-11-15T22:10:14.947Z,1011.5
2017-11-15T22:11:14.979Z,1011.51
2017-11-15T22:12:15.013Z,1011.53
2017-11-15T22:13:15.047Z,1011.48
2017-11-15T22:14:15.080Z,1011.52
2017-11-15T22:15:15.115Z,1011.51
2017-11-15T22:16:15.146Z,1011.52
2017-11-15T22:17:15.183Z,1011.56
2017-11-15T22:18:15.213Z,1011.52
2017-11-15T22:19:15.247Z,1011.47
2017-11-15T22:20:15.279Z,1011.5
2017-11-15T22:21:15.314Z,1011.5
2017-11-15T22:22:15.348Z,1011.52
2017-11-15T22:23:15.379Z,1011.48
2017-11-15T22:24:15.416Z,1011.52
2017-11-15T22:25:15.449Z,1011.51
2017-11-15T22:26:15.486Z,1011.5
2017-11-15T22:27:15.514Z,1011.53
2017-11-15T22:28:15.548Z,1011.56
2017-11-15T22:29:15.579Z,1011.58
2017-11-15T22:30:15.614Z,1011.54
2017-11-15T22:31:15.647Z,1011.54
2017-11-15T22:32:15.682Z,1011.57
2017-11-15T22:33:15.714Z,1011.53
2017-11-15T22:34:15.746Z,1011.56
2017-11-15T22:35:15.781Z,1011.54
2017-11-15T22:36:15.815Z,1011.53
2017-11-15T22:37:15.850Z,1011.52
2017-11-15T22:38:15.885Z,1011.55
2017-11-15T22:39:15.918Z,1011.53
2017-11-15T22:40:15.948Z,1011.57
2017-11-15T22:41:15.982Z,1011.52
2017-11-15T22:42:16.015Z,1011.54
2017-11-15T22:43:16.051Z,1011.51
2017-11-15T22:44:16.082Z,1011.49
2017-11-15T22:45:16.114Z,1011.43
2017-11-15T22:46:16.151Z,1011.47
2017-11-15T22:47:16.184Z,1011.46
2017-11-15T22:48:16.222Z,1011.49
2017-11-15T22:49:16.249Z,1011.55
2017-11-15T22:50:16.286Z,1011.52
2017-11-15T22:51:16.317Z,1011.5
2017-11-15T22:52:16.353Z,1011.51
2017-11-15T22:53:16.385Z,1011.52
2017-11-15T22:54:16.418Z,1011.51
2017-11-15T22:55:16.451Z,1011.51
2017-11-15T22:56:16.492Z,1011.53
2017-11-15T22:57:16.518Z,1011.51
2017-11-15T22:58:16.551Z,1011.53
2017-11-15T22:59:16.585Z,1011.52
2017-11-15T23:00:16.618Z,1011.52
2017-11-15T23:01:16.659Z,1011.53
2017-11-15T23:02:16.696Z,1011.51
2017-11-15T23:03:16.719Z,1011.52
2017-11-15T23:04:16.755Z,1011.55
2017-11-15T23:05:16.785Z,1011.54
2017-11-15T23:06:16.824Z,1011.56
2017-11-15T23:07:16.852Z,1011.52
2017-11-15T23:08:16.888Z,1011.53
2017-11-15T23:09:16.920Z,1011.49
2017-11-15T23:10:16.954Z,1011.47
2017-11-15T23:11:16.986Z,1011.47
2017-11-15T23:12:17.023Z,1011.44
2017-11-15T23:13:17.061Z,1011.45
2017-11-15T23:14:17.086Z,1011.43
2017-11-15T23:15:17.120Z,1011.4
2017-11-15T23:16:17.152Z,1011.41
2017-11-15T23:17:17.186Z,1011.42
2017-11-15T23:18:17.222Z,1011.44
2017-11-15T23:19:17.254Z,1011.39
2017-11-15T23:20:17.288Z,1011.4
2017-11-15T23:21:17.320Z,1011.4
2017-11-15T23:22:17.354Z,1011.39
2017-11-15T23:23:17.388Z,1011.37
2017-11-15T23:24:17.421Z,1011.34
2017-11-15T23:25:17.453Z,1011.31
2017-11-15T23:26:17.488Z,1011.37
2017-11-15T23:27:17.522Z,1011.34
2017-11-15T23:28:17.553Z,1011.36
2017-11-15T23:29:17.635Z,1011.35
2017-11-15T23:30:17.626Z,1011.32
2017-11-15T23:31:17.655Z,1011.32
2017-11-15T23:32:17.690Z,1011.31
2017-11-15T23:33:17.723Z,1011.33
2017-11-15T23:34:17.756Z,1011.31
2017-11-15T23:35:17.790Z,1011.28
2017-11-15T23:36:17.823Z,1011.25
2017-11-15T23:37:17.857Z,1011.26
2017-11-15T23:38:17.891Z,1011.23
2017-11-15T23:39:17.924Z,1011.18
2017-11-15T23:40:17.957Z,1011.2
2017-11-15T23:41:17.992Z,1011.2
2017-11-15T23:42:18.024Z,1011.16
2017-11-15T23:43:18.057Z,1011.16
2017-11-15T23:44:18.092Z,1011.14
2017-11-15T23:45:18.124Z,1011.18
2017-11-15T23:46:18.157Z,1011.17
2017-11-15T23:47:18.192Z,1011.17
2017-11-15T23:48:18.225Z,1011.17
2017-11-15T23:49:18.258Z,1011.17
2017-11-15T23:50:18.292Z,1011.19
2017-11-15T23:51:18.324Z,1011.16
2017-11-15T23:52:18.358Z,1011.15
2017-11-15T23:53:18.391Z,1011.14
2017-11-15T23:54:18.426Z,1011.16
2017-11-15T23:55:18.458Z,1011.15
2017-11-15T23:56:18.494Z,1011.18
2017-11-15T23:57:18.532Z,1011.12
2017-11-15T23:58:18.563Z,1011.15
2017-11-15T23:59:18.592Z,1011.12
